Time;durP1;ratioP1;P1;durP2;ratioP2;P2;SDS_P1;SDS_P2;PMS_P1;PMS_P2;Temp;Humidity;BMP_temperature;BMP_pressure;BME280_temperature;BME280_humidity;BME280_pressure;Samples;Min_cycle;Max_cycle;Signal;HPM_P1;HPM_P2
2023/06/26 00:01:30;;;;;;;10.97;7.73;;;20.50;11.50;;;;;;5048885;28;20593;-67
2023/06/26 00:03:57;;;;;;;11.53;8.20;;;20.50;11.60;;;;;;5050157;28;20482;-67
2023/06/26 00:06:25;;;;;;;13.40;9.27;;;20.40;11.60;;;;;;5052497;28;20472;-67
2023/06/26 00:08:54;;;;;;;15.30;8.70;;;20.40;11.70;;;;;;5044702;28;20450;-68
2023/06/26 00:11:21;;;;;;;13.90;9.60;;;20.30;11.80;;;;;;5051346;28;20458;-68
2023/06/26 00:13:48;;;;;;;11.27;7.90;;;20.30;11.90;;;;;;5050035;28;20485;-68
2023/06/26 00:16:15;;;;;;;11.77;8.90;;;20.30;11.90;;;;;;5052497;28;20454;-68
2023/06/26 00:18:42;;;;;;;13.10;9.53;;;20.20;12.20;;;;;;5052473;28;20488;-67
2023/06/26 00:21:09;;;;;;;12.60;9.03;;;20.20;12.30;;;;;;5051740;28;20478;-68
2023/06/26 00:23:36;;;;;;;14.67;8.90;;;20.20;12.30;;;;;;5046947;28;20485;-67
2023/06/26 00:26:05;;;;;;;14.07;10.07;;;20.10;13.10;;;;;;5049484;28;20453;-67
2023/06/26 00:28:32;;;;;;;12.33;8.80;;;20.10;13.20;;;;;;5050215;28;20500;-67
2023/06/26 00:30:58;;;;;;;17.13;10.60;;;20.00;13.80;;;;;;5045625;28;20490;-66
2023/06/26 00:33:25;;;;;;;13.30;9.67;;;19.90;14.30;;;;;;5048250;28;20477;-67
2023/06/26 00:35:52;;;;;;;14.00;9.80;;;19.80;14.90;;;;;;5048654;28;20454;-68
2023/06/26 00:38:18;;;;;;;14.47;9.60;;;19.70;14.70;;;;;;5050269;28;20465;-67
2023/06/26 00:40:45;;;;;;;12.43;9.50;;;19.70;14.80;;;;;;5049619;28;20485;-68
2023/06/26 00:43:13;;;;;;;14.37;10.30;;;19.60;15.10;;;;;;5048493;28;20485;-67
2023/06/26 00:45:40;;;;;;;12.83;9.40;;;19.60;15.40;;;;;;5040757;28;21023;-67
2023/06/26 00:48:07;;;;;;;15.60;11.37;;;19.50;15.60;;;;;;5048949;28;20454;-67
2023/06/26 00:50:33;;;;;;;14.17;9.93;;;19.40;16.10;;;;;;5046462;28;20454;-67
2023/06/26 00:53:01;;;;;;;13.90;10.60;;;19.40;16.20;;;;;;5048711;28;20474;-67
2023/06/26 00:55:28;;;;;;;16.53;11.30;;;19.30;16.30;;;;;;5048418;28;20849;-68
2023/06/26 00:57:55;;;;;;;18.10;10.97;;;19.30;16.20;;;;;;5047673;28;20818;-68
2023/06/26 01:00:23;;;;;;;15.23;10.67;;;19.20;16.50;;;;;;5048071;28;20473;-68
2023/06/26 01:02:50;;;;;;;15.63;11.10;;;19.20;16.70;;;;;;5046644;28;21053;-67
2023/06/26 01:05:20;;;;;;;14.10;10.67;;;19.10;17.10;;;;;;5047771;28;20466;-68
2023/06/26 01:07:48;;;;;;;14.67;10.10;;;19.10;17.10;;;;;;5048408;28;20458;-67
2023/06/26 01:10:15;;;;;;;13.70;10.50;;;19.10;17.10;;;;;;5047927;28;20454;-68
2023/06/26 01:12:42;;;;;;;15.13;10.93;;;19.10;16.80;;;;;;5044166;28;20482;-67
2023/06/26 01:15:10;;;;;;;14.33;11.00;;;19.00;16.70;;;;;;5044537;28;20463;-67
2023/06/26 01:17:44;;;;;;;14.33;11.23;;;19.00;16.80;;;;;;5048439;28;20465;-67
2023/06/26 01:20:11;;;;;;;14.87;10.23;;;19.00;16.80;;;;;;5051119;28;21012;-67
2023/06/26 01:22:45;;;;;;;14.23;10.80;;;19.00;16.70;;;;;;5050728;28;20481;-67
2023/06/26 01:25:18;;;;;;;13.87;11.20;;;19.00;16.60;;;;;;5045145;28;20465;-68
2023/06/26 01:27:47;;;;;;;15.93;11.17;;;19.00;16.60;;;;;;5048580;28;20450;-68
2023/06/26 01:30:17;;;;;;;15.03;10.03;;;19.00;16.50;;;;;;5055681;28;20438;-68
2023/06/26 01:32:45;;;;;;;16.00;11.57;;;19.10;16.50;;;;;;5078387;28;20470;-67
2023/06/26 01:35:14;;;;;;;16.10;12.00;;;19.00;16.60;;;;;;5058323;28;20446;-68
2023/06/26 01:37:41;;;;;;;14.37;9.90;;;19.10;16.80;;;;;;5046506;28;20450;-68
2023/06/26 01:40:09;;;;;;;15.00;10.70;;;19.00;16.80;;;;;;5050437;28;20454;-68
2023/06/26 01:42:36;;;;;;;14.27;10.90;;;19.10;16.70;;;;;;5045014;28;20584;-68
2023/06/26 01:45:11;;;;;;;13.90;10.93;;;19.10;16.90;;;;;;5049529;28;20457;-67
2023/06/26 01:47:41;;;;;;;16.33;11.70;;;19.00;16.80;;;;;;5051125;28;20995;-68
2023/06/26 01:50:13;;;;;;;15.13;11.30;;;19.00;17.00;;;;;;5053397;28;20462;-67
2023/06/26 01:52:43;;;;;;;16.87;11.90;;;19.00;17.10;;;;;;5049951;28;20486;-68
2023/06/26 01:55:17;;;;;;;16.03;10.97;;;19.00;17.10;;;;;;5050263;28;20462;-68
2023/06/26 01:57:46;;;;;;;16.80;10.30;;;19.00;17.60;;;;;;5050505;28;20873;-67
2023/06/26 02:00:17;;;;;;;13.50;10.57;;;18.90;17.90;;;;;;5048536;28;20468;-67
2023/06/26 02:02:44;;;;;;;13.73;10.50;;;18.80;17.80;;;;;;5049621;28;20507;-67
2023/06/26 02:05:11;;;;;;;16.53;11.17;;;18.80;17.80;;;;;;5061574;23;20691;-67
2023/06/26 02:07:38;;;;;;;14.40;10.73;;;18.70;18.20;;;;;;5025777;28;20463;-67
2023/06/26 02:10:05;;;;;;;15.30;11.03;;;18.70;18.50;;;;;;5017277;28;21143;-67
2023/06/26 02:12:32;;;;;;;13.77;10.60;;;18.70;18.50;;;;;;5011733;28;20852;-67
2023/06/26 02:14:59;;;;;;;17.20;11.40;;;18.70;18.40;;;;;;5013122;28;20939;-67
2023/06/26 02:17:27;;;;;;;14.30;11.40;;;18.60;18.40;;;;;;5010836;28;20462;-67
2023/06/26 02:19:53;;;;;;;15.57;10.80;;;18.60;18.20;;;;;;5013444;28;20804;-66
2023/06/26 02:22:20;;;;;;;16.53;12.87;;;18.60;18.10;;;;;;5007626;28;20479;-66
2023/06/26 02:24:47;;;;;;;16.33;12.00;;;18.60;17.90;;;;;;5012054;28;20467;-66
2023/06/26 02:27:13;;;;;;;17.30;11.50;;;18.70;17.80;;;;;;5008870;28;21132;-66
2023/06/26 02:29:41;;;;;;;17.10;12.80;;;18.70;17.80;;;;;;5011169;28;20467;-66
2023/06/26 02:32:09;;;;;;;14.10;11.20;;;18.60;17.90;;;;;;5008418;28;20475;-66
2023/06/26 02:34:37;;;;;;;18.73;13.37;;;18.60;17.90;;;;;;5005827;28;20471;-66
2023/06/26 02:37:06;;;;;;;15.60;12.03;;;18.60;18.10;;;;;;5009930;28;20532;-66
2023/06/26 02:39:33;;;;;;;16.77;13.13;;;18.60;18.00;;;;;;5010260;28;20467;-66
2023/06/26 02:41:59;;;;;;;16.57;12.87;;;18.60;18.20;;;;;;5009512;28;20483;-66
2023/06/26 02:45:07;;;;;;;18.50;13.17;;;18.60;18.30;;;;;;5010476;28;20972;-66
2023/06/26 02:47:34;;;;;;;15.43;12.03;;;18.60;18.30;;;;;;5010577;28;20467;-66
2023/06/26 02:50:02;;;;;;;17.60;12.10;;;18.60;18.10;;;;;;5010541;28;20470;-66
2023/06/26 02:52:30;;;;;;;18.23;12.70;;;18.50;18.20;;;;;;5006599;28;20480;-66
2023/06/26 02:54:56;;;;;;;15.70;11.70;;;18.50;18.40;;;;;;5011982;28;20459;-66
2023/06/26 02:57:23;;;;;;;17.47;12.87;;;18.50;18.10;;;;;;5010765;28;20970;-67
2023/06/26 02:59:50;;;;;;;17.03;13.00;;;18.50;18.40;;;;;;5008711;28;20464;-66
2023/06/26 03:02:16;;;;;;;15.30;11.80;;;18.50;18.40;;;;;;5009619;28;20483;-66
2023/06/26 03:04:43;;;;;;;17.23;12.30;;;18.50;18.30;;;;;;5007203;28;20495;-66
2023/06/26 03:07:11;;;;;;;17.47;12.03;;;18.40;18.40;;;;;;5011712;28;20495;-66
2023/06/26 03:09:38;;;;;;;18.87;12.87;;;18.40;18.80;;;;;;5014164;28;20952;-66
2023/06/26 03:12:05;;;;;;;15.40;12.83;;;18.40;18.90;;;;;;5010736;28;20483;-66
2023/06/26 03:14:32;;;;;;;17.00;12.73;;;18.40;18.90;;;;;;5010030;28;21270;-66
2023/06/26 03:17:03;;;;;;;17.97;13.20;;;18.30;18.80;;;;;;5012670;28;20492;-66
2023/06/26 03:19:30;;;;;;;16.67;13.13;;;18.30;19.00;;;;;;5008900;28;20460;-66
2023/06/26 03:21:56;;;;;;;15.53;12.43;;;18.30;19.10;;;;;;5010484;28;20484;-66
2023/06/26 03:24:24;;;;;;;15.37;12.07;;;18.20;19.30;;;;;;5010885;28;20881;-66
2023/06/26 03:26:51;;;;;;;18.30;12.10;;;18.20;19.20;;;;;;5008460;28;20476;-66
2023/06/26 03:29:18;;;;;;;16.43;11.80;;;18.20;19.20;;;;;;5006482;28;21004;-66
2023/06/26 03:31:44;;;;;;;17.47;12.03;;;18.20;19.40;;;;;;5012255;28;20480;-66
2023/06/26 03:34:11;;;;;;;19.27;13.00;;;18.10;19.30;;;;;;5012673;28;20470;-66
2023/06/26 03:36:38;;;;;;;20.33;11.60;;;18.10;19.40;;;;;;5007476;28;20467;-66
2023/06/26 03:39:05;;;;;;;16.57;11.50;;;18.10;19.60;;;;;;5008016;28;20464;-66
2023/06/26 03:41:33;;;;;;;19.17;12.80;;;18.10;19.80;;;;;;5006184;28;20495;-67
2023/06/26 03:44:00;;;;;;;16.90;11.87;;;18.00;20.00;;;;;;5006454;28;20471;-66
2023/06/26 03:46:27;;;;;;;14.87;11.07;;;18.00;20.00;;;;;;5006769;28;20464;-68
2023/06/26 03:48:54;;;;;;;16.33;11.90;;;18.00;20.20;;;;;;4999447;28;20467;-67
2023/06/26 03:51:20;;;;;;;17.00;12.20;;;17.90;20.40;;;;;;5001668;28;20475;-67
2023/06/26 03:53:47;;;;;;;17.90;12.23;;;17.90;20.50;;;;;;5005409;28;21000;-67
2023/06/26 03:56:14;;;;;;;18.90;12.60;;;17.90;20.90;;;;;;5007439;28;20464;-68
2023/06/26 03:58:42;;;;;;;16.00;11.37;;;17.90;21.60;;;;;;5005934;28;20470;-67
2023/06/26 04:01:08;;;;;;;16.00;12.33;;;17.90;21.20;;;;;;5005076;28;20475;-67
2023/06/26 04:03:35;;;;;;;16.20;11.83;;;17.90;21.20;;;;;;5008417;28;20492;-67
2023/06/26 04:06:02;;;;;;;15.87;11.87;;;17.90;21.30;;;;;;5006913;28;20960;-67
2023/06/26 04:08:28;;;;;;;16.13;11.80;;;17.90;21.50;;;;;;5008158;28;20993;-67
2023/06/26 04:10:57;;;;;;;15.37;11.70;;;17.80;21.50;;;;;;5013548;28;20479;-67
2023/06/26 04:13:24;;;;;;;13.60;10.50;;;17.80;21.30;;;;;;5008437;28;20479;-67
2023/06/26 04:15:52;;;;;;;15.77;12.07;;;17.80;21.30;;;;;;5004557;28;20467;-67
2023/06/26 04:18:20;;;;;;;15.70;10.87;;;17.80;21.20;;;;;;5003232;28;20834;-67
2023/06/26 04:21:05;;;;;;;15.10;10.97;;;17.90;21.10;;;;;;5007176;28;20471;-67
2023/06/26 04:23:32;;;;;;;17.47;12.73;;;17.90;21.40;;;;;;5006156;28;20479;-67
2023/06/26 04:25:59;;;;;;;15.57;11.20;;;18.00;21.10;;;;;;5003741;28;20841;-67
2023/06/26 04:28:26;;;;;;;16.13;11.90;;;18.00;21.00;;;;;;5000244;28;20475;-66
2023/06/26 04:30:54;;;;;;;15.00;10.83;;;18.10;21.10;;;;;;5004426;28;21035;-67
2023/06/26 04:33:21;;;;;;;16.63;11.97;;;18.20;21.20;;;;;;5007147;28;20578;-67
2023/06/26 04:35:48;;;;;;;16.13;11.50;;;18.60;21.80;;;;;;5009481;28;20854;-66
2023/06/26 04:38:15;;;;;;;14.40;11.43;;;20.00;20.30;;;;;;5008261;28;20495;-67
2023/06/26 04:40:42;;;;;;;15.07;11.20;;;21.50;15.60;;;;;;5001331;28;21025;-67
2023/06/26 04:43:09;;;;;;;13.67;10.80;;;23.00;12.20;;;;;;5010107;28;20515;-67
2023/06/26 04:45:36;;;;;;;14.80;10.87;;;24.30;9.20;;;;;;5005540;28;20476;-67
2023/06/26 04:48:05;;;;;;;14.27;11.50;;;25.30;6.70;;;;;;5003065;28;20910;-67
2023/06/26 04:50:33;;;;;;;15.63;11.40;;;26.30;4.80;;;;;;5003200;28;20984;-66
2023/06/26 04:53:00;;;;;;;17.93;11.90;;;27.10;2.80;;;;;;5005174;28;20571;-67
2023/06/26 04:55:27;;;;;;;13.40;10.57;;;27.90;1.20;;;;;;5003116;28;20495;-67
2023/06/26 04:57:53;;;;;;;15.80;12.00;;;28.40;1.00;;;;;;5003113;28;21022;-67
2023/06/26 05:00:20;;;;;;;15.20;11.27;;;28.00;1.00;;;;;;5009065;28;20472;-67
2023/06/26 05:02:47;;;;;;;15.27;11.40;;;27.70;1.10;;;;;;5001019;28;20480;-67
2023/06/26 05:05:15;;;;;;;16.13;11.70;;;28.50;1.00;;;;;;5001322;28;20467;-66
2023/06/26 05:07:42;;;;;;;17.00;12.67;;;29.50;1.00;;;;;;5002095;28;20463;-67
2023/06/26 05:10:09;;;;;;;14.30;11.47;;;30.30;1.00;;;;;;5002405;28;20467;-69
2023/06/26 05:12:36;;;;;;;13.63;11.20;;;31.00;1.00;;;;;;5002009;28;20479;-69
2023/06/26 05:15:03;;;;;;;15.40;13.10;;;31.80;1.00;;;;;;5007085;28;20464;-68
2023/06/26 05:17:30;;;;;;;13.70;11.40;;;32.60;1.00;;;;;;5004532;28;21019;-68
2023/06/26 05:19:57;;;;;;;14.27;11.80;;;33.30;1.00;;;;;;4999886;28;20487;-68
2023/06/26 05:22:26;;;;;;;13.93;12.50;;;33.90;1.00;;;;;;5004115;28;21022;-68
2023/06/26 05:24:55;;;;;;;12.40;10.93;;;34.60;1.00;;;;;;5001050;28;20475;-68
2023/06/26 05:27:23;;;;;;;12.03;10.83;;;35.20;1.00;;;;;;4996756;28;21011;-68
2023/06/26 05:29:50;;;;;;;12.27;10.97;;;35.80;1.00;;;;;;5001422;28;20882;-68
2023/06/26 05:32:18;;;;;;;13.53;11.43;;;36.40;1.00;;;;;;5000832;28;20476;-68
2023/06/26 05:34:47;;;;;;;14.10;12.43;;;37.10;1.00;;;;;;4998641;28;20496;-72
2023/06/26 05:37:19;;;;;;;15.37;11.40;;;37.60;1.00;;;;;;5003081;28;20478;-69
2023/06/26 05:39:48;;;;;;;12.93;11.60;;;38.10;1.00;;;;;;5007158;28;21215;-68
2023/06/26 05:42:16;;;;;;;16.90;11.87;;;38.70;1.00;;;;;;5003369;28;20494;-68
2023/06/26 05:44:42;;;;;;;11.90;10.60;;;39.30;1.00;;;;;;5006164;28;20464;-68
2023/06/26 05:47:09;;;;;;;12.03;10.70;;;39.80;1.00;;;;;;5001681;28;20467;-68
2023/06/26 05:49:36;;;;;;;12.17;10.87;;;40.30;1.00;;;;;;5005502;28;20472;-68
2023/06/26 05:52:03;;;;;;;12.30;11.00;;;40.70;1.00;;;;;;5005582;28;20484;-67
2023/06/26 05:54:30;;;;;;;14.20;10.30;;;41.20;1.00;;;;;;5009323;28;21069;-68
2023/06/26 05:57:00;;;;;;;11.93;10.47;;;41.80;1.00;;;;;;5006105;28;20459;-67
2023/06/26 05:59:27;;;;;;;12.40;11.07;;;42.40;1.00;;;;;;5004804;28;20491;-66
2023/06/26 06:01:54;;;;;;;16.47;11.57;;;42.90;1.00;;;;;;5003511;28;20468;-66
2023/06/26 06:04:21;;;;;;;14.77;9.93;;;43.40;1.00;;;;;;5008837;28;20913;-66
2023/06/26 06:06:48;;;;;;;11.47;9.90;;;43.80;1.00;;;;;;5003657;28;20460;-67
2023/06/26 06:09:15;;;;;;;11.87;10.27;;;44.30;1.00;;;;;;5005589;28;20463;-66
2023/06/26 06:11:42;;;;;;;13.93;9.77;;;44.80;1.00;;;;;;5010352;28;20470;-66
2023/06/26 06:14:10;;;;;;;15.47;10.30;;;45.20;1.00;;;;;;5008060;28;20467;-66
2023/06/26 06:16:37;;;;;;;10.53;9.43;;;45.70;1.00;;;;;;5003874;28;20473;-67
2023/06/26 06:19:06;;;;;;;12.83;10.23;;;46.10;1.00;;;;;;5006227;28;20460;-67
2023/06/26 06:21:33;;;;;;;10.53;9.37;;;46.50;1.00;;;;;;5002643;28;20569;-67
2023/06/26 06:24:01;;;;;;;16.53;9.40;;;46.90;1.00;;;;;;4999227;28;20821;-69
2023/06/26 06:26:27;;;;;;;11.27;8.93;;;47.40;1.00;;;;;;5005558;28;20486;-68
2023/06/26 06:28:54;;;;;;;12.40;9.90;;;47.70;1.00;;;;;;5007837;28;20479;-68
2023/06/26 06:31:22;;;;;;;9.13;8.17;;;48.10;1.00;;;;;;5003583;28;20488;-68
2023/06/26 06:33:49;;;;;;;9.93;8.80;;;48.50;1.00;;;;;;5004021;28;20487;-68
2023/06/26 06:36:16;;;;;;;11.47;9.30;;;48.90;1.00;;;;;;5007360;28;21007;-68
2023/06/26 06:38:44;;;;;;;10.30;8.77;;;49.20;1.00;;;;;;5002457;28;20476;-69
2023/06/26 06:41:12;;;;;;;9.80;8.13;;;49.60;1.00;;;;;;5006458;28;20499;-69
2023/06/26 06:43:39;;;;;;;12.33;7.87;;;49.80;1.00;;;;;;5007490;28;20911;-69
2023/06/26 06:46:05;;;;;;;8.90;8.00;;;50.30;1.00;;;;;;5007821;28;20472;-68
2023/06/26 06:48:33;;;;;;;10.23;8.80;;;50.60;1.00;;;;;;5004573;28;22411;-70
2023/06/26 06:51:00;;;;;;;14.73;8.57;;;51.00;1.00;;;;;;5004277;28;20475;-70
2023/06/26 06:53:27;;;;;;;8.63;7.73;;;51.10;1.00;;;;;;5006559;28;20475;-68
2023/06/26 06:55:54;;;;;;;12.83;8.07;;;51.20;1.00;;;;;;5003098;28;20463;-68
2023/06/26 06:58:22;;;;;;;9.63;8.20;;;51.60;1.00;;;;;;5006382;28;20467;-68
2023/06/26 07:00:49;;;;;;;12.13;8.30;;;52.00;1.00;;;;;;5003056;28;20988;-67
2023/06/26 07:03:16;;;;;;;10.17;7.97;;;52.30;1.00;;;;;;5005235;28;20863;-68
2023/06/26 07:05:44;;;;;;;8.10;6.97;;;52.50;1.00;;;;;;5005675;28;20467;-68
2023/06/26 07:08:11;;;;;;;10.70;7.20;;;52.90;1.00;;;;;;5004952;28;20555;-67
2023/06/26 07:10:38;;;;;;;12.77;7.60;;;53.30;1.00;;;;;;5008492;28;20471;-68
2023/06/26 07:13:04;;;;;;;9.33;7.70;;;53.50;1.00;;;;;;5006306;28;20487;-68
2023/06/26 07:15:32;;;;;;;8.70;7.60;;;53.70;1.00;;;;;;5004880;28;20466;-69
2023/06/26 07:17:59;;;;;;;12.47;7.60;;;54.00;1.00;;;;;;5008599;28;20474;-67
2023/06/26 07:20:25;;;;;;;9.40;7.47;;;54.40;1.00;;;;;;5008931;28;20462;-68
2023/06/26 07:22:53;;;;;;;9.07;7.03;;;54.40;1.00;;;;;;5006217;28;20490;-69
2023/06/26 07:25:20;;;;;;;8.23;7.43;;;54.70;1.00;;;;;;5004632;28;20472;-69
2023/06/26 07:27:47;;;;;;;7.43;6.67;;;54.90;1.00;;;;;;5008839;28;20836;-68
2023/06/26 07:30:13;;;;;;;9.83;7.00;;;55.30;1.00;;;;;;5005184;28;20475;-69
2023/06/26 07:32:42;;;;;;;8.37;6.60;;;55.40;1.00;;;;;;5004567;28;20511;-71
2023/06/26 07:35:12;;;;;;;8.57;6.50;;;55.50;1.00;;;;;;4999803;28;20469;-68
2023/06/26 07:37:38;;;;;;;8.07;6.70;;;55.80;1.00;;;;;;5004883;28;20467;-68
2023/06/26 07:40:07;;;;;;;9.33;7.13;;;56.00;1.00;;;;;;4999002;28;21059;-67
2023/06/26 07:42:34;;;;;;;11.50;7.03;;;56.20;1.00;;;;;;5009365;28;20229;-67
2023/06/26 07:45:01;;;;;;;7.90;7.10;;;56.60;1.00;;;;;;5005679;28;20467;-68
2023/06/26 07:47:29;;;;;;;8.55;6.80;;;56.80;1.00;;;;;;5007761;28;20226;-68
2023/06/26 07:49:55;;;;;;;7.75;6.38;;;57.20;1.00;;;;;;5004288;28;20206;-69
2023/06/26 07:52:22;;;;;;;7.70;6.93;;;57.40;1.00;;;;;;5008885;28;20254;-68
2023/06/26 07:54:49;;;;;;;7.53;6.53;;;57.70;1.00;;;;;;5007628;28;20681;-69
2023/06/26 07:57:17;;;;;;;11.68;7.72;;;58.10;1.00;;;;;;5006825;28;20209;-70
2023/06/26 07:59:43;;;;;;;12.80;7.35;;;58.20;1.00;;;;;;5009388;28;20220;-70
2023/06/26 08:02:10;;;;;;;7.43;6.72;;;58.30;1.00;;;;;;5006197;28;20617;-68
2023/06/26 08:04:37;;;;;;;9.93;6.35;;;58.80;1.00;;;;;;5006471;28;20217;-68
2023/06/26 08:07:04;;;;;;;8.15;6.80;;;58.80;1.00;;;;;;5006594;28;20661;-68
2023/06/26 08:09:31;;;;;;;7.25;5.68;;;59.20;1.00;;;;;;5007933;28;20231;-68
2023/06/26 08:11:58;;;;;;;7.05;6.10;;;59.30;1.00;;;;;;5024414;23;20255;-76
2023/06/26 08:14:26;;;;;;;7.55;6.00;;;59.30;1.00;;;;;;5041425;28;20675;-77
2023/06/26 08:16:53;;;;;;;6.75;6.05;;;59.30;1.00;;;;;;5045207;28;20213;-75
2023/06/26 08:19:20;;;;;;;6.93;6.15;;;59.30;1.00;;;;;;5035253;28;20860;-73
2023/06/26 08:21:47;;;;;;;9.05;6.60;;;59.60;1.00;;;;;;5036759;28;20211;-75
2023/06/26 08:24:16;;;;;;;8.57;6.20;;;59.70;1.00;;;;;;5041684;28;20230;-74
2023/06/26 08:26:42;;;;;;;5.85;5.22;;;59.80;1.00;;;;;;5042640;28;20295;-78
2023/06/26 08:29:09;;;;;;;6.95;6.25;;;60.10;1.00;;;;;;5044886;28;20218;-78
2023/06/26 08:31:37;;;;;;;7.38;6.20;;;60.10;1.00;;;;;;5042707;28;20707;-78
2023/06/26 08:34:04;;;;;;;6.75;6.05;;;60.30;1.00;;;;;;5046039;28;20293;-78
2023/06/26 08:36:32;;;;;;;6.95;6.25;;;60.40;1.00;;;;;;5051284;28;20210;-78
2023/06/26 08:38:59;;;;;;;7.18;6.47;;;60.20;1.00;;;;;;5046446;28;20208;-77
2023/06/26 08:41:26;;;;;;;11.50;6.40;;;60.30;1.00;;;;;;5045112;28;20394;-80
2023/06/26 08:43:53;;;;;;;8.57;6.20;;;60.50;1.00;;;;;;5046322;28;20225;-79
2023/06/26 08:46:20;;;;;;;6.78;6.10;;;60.40;1.00;;;;;;5042956;28;21665;-79
2023/06/26 08:48:50;;;;;;;7.40;5.80;;;60.30;1.00;;;;;;5043424;28;20199;-79
2023/06/26 08:51:18;;;;;;;8.73;6.05;;;60.10;1.00;;;;;;5044594;28;20227;-77
2023/06/26 08:53:52;;;;;;;6.75;5.82;;;60.10;1.00;;;;;;5046678;28;20216;-76
2023/06/26 08:56:21;;;;;;;6.00;5.40;;;60.10;1.00;;;;;;5043985;28;20203;-77
2023/06/26 08:58:49;;;;;;;7.15;5.70;;;60.20;1.00;;;;;;5041525;28;20265;-76
2023/06/26 09:01:17;;;;;;;9.13;5.63;;;60.50;1.00;;;;;;5042109;28;20219;-76
2023/06/26 09:04:07;;;;;;;6.65;5.95;;;60.40;1.00;;;;;;5044963;28;20237;-75
2023/06/26 09:06:34;;;;;;;5.97;5.13;;;60.50;1.00;;;;;;5046809;28;20268;-76
2023/06/26 09:09:01;;;;;;;6.88;5.60;;;60.30;1.00;;;;;;5038623;28;20199;-74
2023/06/26 09:11:27;;;;;;;6.60;5.60;;;60.20;1.00;;;;;;5046741;28;20203;-76
2023/06/26 09:13:56;;;;;;;7.25;5.70;;;59.90;1.00;;;;;;5038721;28;20200;-76
2023/06/26 09:16:27;;;;;;;6.32;5.13;;;59.30;1.00;;;;;;5045938;28;20568;-76
2023/06/26 09:18:54;;;;;;;6.40;5.57;;;59.10;1.00;;;;;;5043563;28;20199;-77
2023/06/26 09:21:24;;;;;;;6.53;5.93;;;58.50;1.00;;;;;;5043200;28;20686;-77
2023/06/26 09:23:51;;;;;;;6.77;5.63;;;56.70;1.00;;;;;;5045863;28;20243;-77
2023/06/26 09:26:17;;;;;;;6.70;6.00;;;54.60;1.00;;;;;;5046461;28;20203;-77
2023/06/26 09:28:44;;;;;;;7.43;6.20;;;52.40;1.00;;;;;;5044843;28;20251;-76
2023/06/26 09:31:11;;;;;;;9.80;5.67;;;50.70;1.00;;;;;;5043884;28;21041;-76
2023/06/26 09:33:40;;;;;;;8.40;5.57;;;49.00;1.00;;;;;;5046792;28;20489;-76
2023/06/26 09:36:09;;;;;;;7.80;5.70;;;47.50;1.00;;;;;;5048801;28;20565;-78
2023/06/26 09:38:37;;;;;;;6.67;5.10;;;46.10;1.00;;;;;;5048542;28;20493;-77
2023/06/26 09:41:04;;;;;;;7.10;5.80;;;45.00;1.00;;;;;;5043862;28;20469;-77
2023/06/26 09:43:31;;;;;;;8.43;6.60;;;43.80;1.00;;;;;;5049611;28;20477;-77
2023/06/26 09:45:59;;;;;;;6.30;5.50;;;42.70;1.00;;;;;;5048185;28;20493;-77
2023/06/26 09:48:26;;;;;;;8.10;7.00;;;41.90;1.00;;;;;;5045154;28;22957;-77
2023/06/26 09:50:54;;;;;;;9.13;6.37;;;41.10;1.00;;;;;;5044544;28;20505;-78
2023/06/26 09:53:21;;;;;;;8.50;6.93;;;40.40;1.00;;;;;;5041914;28;20501;-76
2023/06/26 09:55:49;;;;;;;8.13;6.17;;;39.70;1.00;;;;;;5043328;28;20472;-78
2023/06/26 09:58:17;;;;;;;8.03;6.43;;;39.10;1.00;;;;;;5042943;28;20478;-74
2023/06/26 10:00:44;;;;;;;7.37;6.17;;;38.50;1.00;;;;;;5048035;28;20478;-79
2023/06/26 10:03:12;;;;;;;9.70;7.20;;;38.20;1.00;;;;;;5046090;28;20474;-79
2023/06/26 10:05:39;;;;;;;10.43;8.20;;;37.80;1.00;;;;;;5043646;28;20474;-78
2023/06/26 10:08:07;;;;;;;13.27;11.10;;;37.40;1.00;;;;;;5044726;28;20493;-78
2023/06/26 10:10:35;;;;;;;11.87;10.67;;;37.10;1.00;;;;;;5043737;28;20470;-78
2023/06/26 10:13:09;;;;;;;11.17;7.30;;;36.80;1.00;;;;;;5043627;28;20482;-79
2023/06/26 10:15:37;;;;;;;10.20;6.40;;;36.70;1.00;;;;;;5042187;28;20993;-78
2023/06/26 10:18:05;;;;;;;8.23;6.70;;;36.60;1.00;;;;;;5047893;28;20462;-77
2023/06/26 10:20:33;;;;;;;8.20;6.87;;;36.40;1.00;;;;;;5039166;28;20473;-83
2023/06/26 10:23:03;;;;;;;8.30;6.73;;;36.30;1.00;;;;;;5048761;28;20493;-76
2023/06/26 10:25:32;;;;;;;8.40;6.00;;;36.20;1.00;;;;;;5045285;28;20473;-72
2023/06/26 10:28:03;;;;;;;7.37;6.27;;;36.10;1.00;;;;;;5041422;28;20458;-73
2023/06/26 10:30:33;;;;;;;7.87;5.70;;;36.00;1.00;;;;;;5047664;28;21092;-73
2023/06/26 10:33:02;;;;;;;11.00;5.90;;;35.90;1.00;;;;;;5048047;28;20803;-73
2023/06/26 10:36:16;;;;;;;7.57;5.63;;;35.70;1.00;;;;;;5061228;28;20950;-77
2023/06/26 10:38:54;;;;;;;8.73;6.17;;;35.40;1.00;;;;;;5060926;28;20464;-78
2023/06/26 10:41:24;;;;;;;7.90;6.03;;;35.30;1.00;;;;;;5066733;28;20461;-78
2023/06/26 10:44:08;;;;;;;7.53;5.63;;;35.10;1.00;;;;;;5060622;28;20493;-79
2023/06/26 10:46:51;;;;;;;9.63;5.80;;;35.10;1.00;;;;;;5068037;28;20462;-78
2023/06/26 10:49:18;;;;;;;6.53;5.07;;;34.90;1.00;;;;;;5068107;28;20454;-78
2023/06/26 10:51:50;;;;;;;7.30;5.80;;;34.80;1.00;;;;;;5064482;28;20556;-78
2023/06/26 10:54:18;;;;;;;14.33;6.40;;;34.70;1.00;;;;;;5070790;28;20497;-78
2023/06/26 10:56:47;;;;;;;9.47;6.13;;;34.60;1.00;;;;;;5066575;28;20482;-78
2023/06/26 10:59:20;;;;;;;7.80;5.70;;;34.50;1.00;;;;;;5059349;28;20552;-77
2023/06/26 11:01:54;;;;;;;6.17;4.87;;;34.40;1.00;;;;;;5057153;28;20485;-78
2023/06/26 11:04:37;;;;;;;7.37;5.60;;;34.30;1.00;;;;;;5055867;28;20481;-80
2023/06/26 11:07:18;;;;;;;7.03;5.60;;;34.40;1.00;;;;;;5049285;28;20876;-78
2023/06/26 11:09:55;;;;;;;9.73;5.70;;;34.40;1.00;;;;;;5051087;28;20467;-78
2023/06/26 11:12:36;;;;;;;8.57;5.83;;;34.40;1.00;;;;;;5050693;28;20477;-78
2023/06/26 11:15:04;;;;;;;7.20;5.80;;;34.30;1.00;;;;;;5046634;28;20445;-75
2023/06/26 11:17:32;;;;;;;10.57;6.40;;;34.20;1.00;;;;;;5044498;28;20473;-75
2023/06/26 11:19:59;;;;;;;7.57;5.97;;;34.20;1.00;;;;;;5048207;28;20468;-76
2023/06/26 11:22:27;;;;;;;8.13;5.70;;;34.10;1.00;;;;;;5046982;28;21689;-76
2023/06/26 11:24:55;;;;;;;7.50;6.17;;;34.10;1.00;;;;;;5038210;28;20474;-76
2023/06/26 11:27:24;;;;;;;8.03;5.87;;;34.20;1.00;;;;;;5047922;28;20940;-77
2023/06/26 11:29:50;;;;;;;8.83;6.30;;;34.10;1.00;;;;;;5046363;28;20458;-76
2023/06/26 11:32:18;;;;;;;7.00;5.70;;;34.10;1.00;;;;;;5046309;28;20862;-77
2023/06/26 11:34:45;;;;;;;10.00;6.87;;;34.00;1.00;;;;;;5048555;28;20473;-76
2023/06/26 11:37:12;;;;;;;9.23;5.93;;;33.90;1.00;;;;;;5046482;28;20473;-76
2023/06/26 11:39:38;;;;;;;8.90;6.20;;;33.90;1.00;;;;;;5048938;28;20462;-76
2023/06/26 11:42:06;;;;;;;8.10;5.93;;;34.00;1.00;;;;;;5046971;28;20474;-77
2023/06/26 11:44:33;;;;;;;7.90;5.73;;;34.00;1.00;;;;;;5040980;28;20482;-76
2023/06/26 11:46:59;;;;;;;8.07;6.40;;;34.10;1.00;;;;;;5046500;28;20462;-76
2023/06/26 11:49:29;;;;;;;8.63;6.40;;;34.00;1.00;;;;;;5042749;28;20473;-76
2023/06/26 11:51:56;;;;;;;9.20;6.57;;;33.90;1.00;;;;;;5044917;28;20474;-76
2023/06/26 11:54:27;;;;;;;8.67;6.00;;;33.80;1.00;;;;;;5044101;28;21125;-75
2023/06/26 11:56:59;;;;;;;7.47;5.30;;;33.60;1.00;;;;;;5042805;28;20972;-75
2023/06/26 11:59:34;;;;;;;7.90;6.30;;;33.60;1.00;;;;;;5046116;28;20504;-75
2023/06/26 12:02:01;;;;;;;8.00;6.10;;;33.60;1.00;;;;;;5045189;28;20486;-76
2023/06/26 12:04:29;;;;;;;8.27;6.10;;;33.50;1.00;;;;;;5045330;28;20477;-76
2023/06/26 12:06:57;;;;;;;8.10;6.10;;;33.40;1.00;;;;;;5046876;28;20498;-76
2023/06/26 12:09:24;;;;;;;7.20;5.83;;;33.30;1.00;;;;;;5046021;28;20462;-80
2023/06/26 12:11:54;;;;;;;9.00;6.37;;;33.20;1.00;;;;;;5043451;28;20505;-70
2023/06/26 12:14:22;;;;;;;10.30;6.67;;;33.10;1.00;;;;;;5045140;28;20465;-70
2023/06/26 12:16:49;;;;;;;10.73;6.80;;;33.20;1.00;;;;;;5046450;28;20458;-76
2023/06/26 12:19:16;;;;;;;10.93;7.30;;;33.20;1.00;;;;;;5047175;28;20466;-73
2023/06/26 12:21:52;;;;;;;7.97;6.10;;;33.20;1.00;;;;;;5044752;28;20458;-75
2023/06/26 12:24:21;;;;;;;7.87;6.33;;;33.20;1.00;;;;;;5044400;28;20486;-73
2023/06/26 12:26:51;;;;;;;9.53;6.90;;;33.10;1.00;;;;;;5046241;28;21059;-71
2023/06/26 12:29:19;;;;;;;10.50;7.50;;;33.10;1.00;;;;;;5046346;28;20469;-74
2023/06/26 12:31:49;;;;;;;8.67;6.57;;;33.00;1.00;;;;;;5046130;28;20480;-76
2023/06/26 12:34:20;;;;;;;9.67;6.87;;;33.00;1.00;;;;;;5044304;28;20455;-72
2023/06/26 12:36:50;;;;;;;8.17;6.60;;;32.90;1.00;;;;;;5047440;28;20977;-77
2023/06/26 12:39:18;;;;;;;10.13;7.63;;;33.00;1.00;;;;;;5042601;28;20461;-72
2023/06/26 12:41:46;;;;;;;13.93;7.20;;;33.00;1.00;;;;;;5046518;28;20939;-78
2023/06/26 12:44:25;;;;;;;9.10;7.03;;;33.00;1.00;;;;;;5045159;28;20479;-79
2023/06/26 12:46:59;;;;;;;8.77;7.13;;;32.90;1.00;;;;;;5041960;28;20480;-75
2023/06/26 12:49:34;;;;;;;12.00;7.10;;;33.00;1.00;;;;;;5044338;28;20485;-71